Merrimack River @ Franklin Jct, Nh

Merrimack River at Franklin Junction
 Total Drainage Area: 1,507 sq. miles 
 Drainage Area Controlled by Corps Dams: 1,000 sq. miles (66%) 
 Warning Flow/Stage: 15,980 cfs / 13.0 feet 
 Flood Flow/Stage: 18,180 cfs / 14.0 feet 
Date Time
(Eastern)
Stage
(ft)
Flow
(cfs)
CSM
(cfs / sq. mi.)
Jan-31 02:30 pm 6.45 3,573 2.4
Jan-31 01:30 pm 6.47 3,603 2.4
Jan-31 12:30 pm 6.56 3,739 2.5
Jan-31 11:30 am 6.57 3,755 2.5
Jan-31 10:30 am 6.54 3,709 2.5
Jan-31 09:30 am 6.51 3,663 2.4
Jan-31 08:30 am 6.56 3,739 2.5
Jan-31 07:30 am 6.50 3,648 2.4
Jan-31 06:30 am 6.50 3,648 2.4
Jan-31 05:30 am 6.50 3,648 2.4
Jan-31 04:30 am 6.49 3,633 2.4
Jan-31 03:30 am 6.47 3,603 2.4
Jan-31 02:30 am 6.46 3,588 2.4
Jan-31 01:30 am 6.47 3,603 2.4
Jan-31 12:30 am 6.47 3,603 2.4
Jan-30 11:30 pm 6.52 3,678 2.4
Jan-30 10:30 pm 6.61 3,816 2.5
Jan-30 09:30 pm 6.61 3,816 2.5
Jan-30 08:30 pm 6.61 3,816 2.5
Jan-30 07:30 pm 6.62 3,831 2.5
Jan-30 06:30 pm 6.65 3,877 2.6
Jan-30 05:30 pm 6.64 3,862 2.6
Jan-30 04:30 pm 6.47 3,603 2.4
Jan-30 03:30 pm 6.47 3,603 2.4
Jan-30 02:30 pm 6.44 3,558 2.4
Report Generated January 31, 2023 03:24 pm